createdAt,value
2023-02-12T00:00:18.156Z,126.85
2023-02-12T00:06:19.992Z,129.68
2023-02-12T00:12:21.742Z,125.22
2023-02-12T00:18:23.539Z,125.50
2023-02-12T00:24:25.757Z,142.60
2023-02-12T00:30:27.673Z,128.25
2023-02-12T00:36:32.411Z,148.68
2023-02-12T00:42:34.475Z,139.55
2023-02-12T00:48:39.803Z,120.45
2023-02-12T00:54:43.752Z,115.05
2023-02-12T01:00:45.955Z,109.65
2023-02-12T01:06:48.011Z,113.18
2023-02-12T01:12:50.608Z,102.20
2023-02-12T01:18:56.083Z,116.65
2023-02-12T01:24:58.124Z,122.78
2023-02-12T01:31:00.122Z,130.82
2023-02-12T01:37:02.025Z,121.38
2023-02-12T01:43:04.050Z,122.03
2023-02-12T01:49:10.978Z,120.47
2023-02-12T01:55:14.454Z,110.53
2023-02-12T02:01:21.659Z,123.15
2023-02-12T02:07:29.412Z,142.13
2023-02-12T02:13:50.796Z,133.13
2023-02-12T02:20:17.660Z,128.32
2023-02-12T02:26:41.100Z,129.65
2023-02-12T02:32:56.280Z,143.80
2023-02-12T02:39:05.757Z,162.30
2023-02-12T02:45:36.474Z,138.63
2023-02-12T02:51:46.450Z,142.95
2023-02-12T02:58:14.370Z,131.48
2023-02-12T03:04:38.484Z,147.82
2023-02-12T03:10:44.892Z,147.95
2023-02-12T03:17:04.086Z,182.25
2023-02-12T03:23:14.190Z,164.15
2023-02-12T03:29:17.595Z,212.18
2023-02-12T03:35:36.166Z,215.07
2023-02-12T03:41:49.359Z,188.27
2023-02-12T03:48:14.692Z,184.02
2023-02-12T03:54:20.097Z,158.30
2023-02-12T04:00:24.299Z,195.23
2023-02-12T04:06:29.330Z,150.95
2023-02-12T04:12:39.240Z,170.82
2023-02-12T04:18:43.970Z,162.15
2023-02-12T04:25:04.319Z,151.75
2023-02-12T04:31:13.149Z,141.80
2023-02-12T04:37:33.844Z,152.55
2023-02-12T04:43:37.541Z,160.48
2023-02-12T04:49:39.521Z,170.23
2023-02-12T04:55:41.343Z,147.45
2023-02-12T05:01:44.348Z,182.77
2023-02-12T05:07:46.175Z,190.93
2023-02-12T05:13:52.618Z,195.25
2023-02-12T05:19:54.480Z,241.05
2023-02-12T05:25:59.627Z,208.55
2023-02-12T05:32:01.609Z,224.10
2023-02-12T05:38:03.491Z,272.90
2023-02-12T05:44:06.578Z,277.52
2023-02-12T05:50:08.688Z,372.00
2023-02-12T05:56:12.270Z,309.75
2023-02-12T06:02:14.051Z,401.45
2023-02-12T06:08:15.774Z,286.10
2023-02-12T06:14:19.835Z,267.23
2023-02-12T06:20:21.573Z,268.33
2023-02-12T06:26:23.701Z,742.90
2023-02-12T06:32:25.763Z,392.73
2023-02-12T06:38:27.544Z,239.15
2023-02-12T06:44:29.314Z,237.77
2023-02-12T06:50:31.225Z,242.98
2023-02-12T06:56:33.005Z,240.10
2023-02-12T07:02:36.280Z,220.70
2023-02-12T07:08:40.135Z,278.15
2023-02-12T07:14:41.873Z,419.15
2023-02-12T07:20:43.617Z,248.90
2023-02-12T07:26:45.456Z,238.35
2023-02-12T07:32:47.256Z,210.32
2023-02-12T07:38:49.264Z,232.18
2023-02-12T07:44:50.992Z,181.13
2023-02-12T07:50:52.795Z,194.80
2023-02-12T07:56:54.713Z,189.40
2023-02-12T08:02:56.465Z,197.77
2023-02-12T08:09:00.499Z,200.60
2023-02-12T08:15:02.268Z,178.20
2023-02-12T08:21:15.468Z,157.75
2023-02-12T08:27:17.214Z,158.88
2023-02-12T08:33:18.934Z,164.38
2023-02-12T08:39:21.494Z,180.25
2023-02-12T08:45:23.278Z,169.95
2023-02-12T08:51:28.682Z,162.75
2023-02-12T08:57:30.612Z,156.95
2023-02-12T09:03:32.368Z,149.15
2023-02-12T09:09:34.254Z,123.35
2023-02-12T09:15:44.877Z,115.80
2023-02-12T09:21:53.927Z,128.68
2023-02-12T09:27:56.977Z,108.40
2023-02-12T09:34:01.913Z,115.32
2023-02-12T09:40:03.767Z,98.40
2023-02-12T09:46:30.638Z,93.43
2023-02-12T09:52:34.828Z,77.15
2023-02-12T09:58:55.384Z,67.05
2023-02-12T10:05:01.872Z,63.85
2023-02-12T10:11:26.418Z,60.58
2023-02-12T10:17:46.329Z,54.35
2023-02-12T10:24:00.382Z,44.08
2023-02-12T10:30:13.640Z,44.20
2023-02-12T10:36:37.117Z,46.05
2023-02-12T10:42:42.327Z,40.25
2023-02-12T10:48:48.183Z,36.80
2023-02-12T10:54:49.962Z,38.00
2023-02-12T11:00:58.296Z,36.60
2023-02-12T11:07:05.824Z,37.05
2023-02-12T11:13:24.695Z,36.70
2023-02-12T11:19:30.657Z,39.92
2023-02-12T11:25:37.772Z,39.28
2023-02-12T11:31:41.635Z,28.13
2023-02-12T11:37:45.267Z,37.42
2023-02-12T11:43:47.277Z,28.55
2023-02-12T11:49:53.875Z,25.50
2023-02-12T11:56:02.207Z,25.15
2023-02-12T12:02:27.898Z,24.20
2023-02-12T12:08:44.926Z,26.63
2023-02-12T12:15:09.291Z,28.52
2023-02-12T12:21:26.365Z,26.65
2023-02-12T12:27:59.785Z,26.50
2023-02-12T12:34:16.939Z,25.00
2023-02-12T12:40:49.166Z,27.98
2023-02-12T12:46:58.630Z,33.30
2023-02-12T12:53:10.682Z,31.20
2023-02-12T12:59:35.362Z,36.42
2023-02-12T13:06:15.977Z,33.67
2023-02-12T13:12:37.060Z,32.65
2023-02-12T13:18:51.159Z,32.03
2023-02-12T13:25:35.131Z,37.67
2023-02-12T13:31:46.037Z,36.47
2023-02-12T13:37:51.395Z,37.42
2023-02-12T13:44:31.634Z,35.33
2023-02-12T13:51:01.461Z,36.95
2023-02-12T13:57:09.412Z,35.00
2023-02-12T14:09:23.930Z,37.00
2023-02-12T14:15:31.156Z,29.90
2023-02-12T14:21:36.205Z,32.20
2023-02-12T14:27:58.647Z,32.40
2023-02-12T14:34:06.784Z,32.83
2023-02-12T14:40:42.524Z,36.28
2023-02-12T14:46:53.606Z,34.00
2023-02-12T14:53:16.246Z,33.90
2023-02-12T14:59:21.989Z,37.97
2023-02-12T15:05:31.192Z,35.55
2023-02-12T15:11:33.010Z,37.17
2023-02-12T15:17:39.485Z,37.53
2023-02-12T15:23:44.437Z,37.58
2023-02-12T15:29:52.767Z,35.33
2023-02-12T15:35:55.832Z,40.67
2023-02-12T15:41:58.074Z,35.28
2023-02-12T15:48:10.694Z,34.10
2023-02-12T15:54:21.914Z,39.15
2023-02-12T16:00:56.822Z,39.90
2023-02-12T16:07:00.195Z,32.17
2023-02-12T16:13:02.093Z,36.38
2023-02-12T16:19:21.104Z,65.03
2023-02-12T16:25:31.982Z,27.88
2023-02-12T16:31:33.801Z,32.33
2023-02-12T16:37:35.573Z,29.63
2023-02-12T16:43:37.438Z,30.55
2023-02-12T16:49:55.898Z,29.88
2023-02-12T16:56:01.844Z,30.20
2023-02-12T17:02:10.962Z,44.22
2023-02-12T17:08:19.360Z,41.05
2023-02-12T17:14:21.413Z,45.60
2023-02-12T17:20:23.193Z,40.67
2023-02-12T17:26:25.934Z,38.45
2023-02-12T17:32:27.936Z,46.50
2023-02-12T17:38:29.714Z,39.22
2023-02-12T17:44:31.515Z,42.88
2023-02-12T17:50:33.261Z,37.63
2023-02-12T17:56:35.421Z,36.63
2023-02-12T18:10:03.520Z,44.83
2023-02-12T18:16:19.074Z,42.03
2023-02-12T18:22:27.916Z,40.38
2023-02-12T18:28:47.535Z,44.15
2023-02-12T18:34:59.431Z,44.63
2023-02-12T18:56:04.197Z,48.58
2023-02-12T19:02:22.757Z,44.42
2023-02-12T19:08:32.153Z,41.65
2023-02-12T19:14:51.394Z,48.47
2023-02-12T19:21:09.103Z,41.30
2023-02-12T19:34:07.415Z,43.03
2023-02-12T19:48:04.782Z,43.53
2023-02-12T19:54:13.934Z,38.67
2023-02-12T20:00:27.185Z,45.35
2023-02-12T20:07:00.928Z,55.13
2023-02-12T20:13:06.379Z,45.42
2023-02-12T20:19:10.820Z,42.63
2023-02-12T20:25:16.816Z,42.50
2023-02-12T20:31:32.849Z,45.17
2023-02-12T20:44:41.958Z,48.45
2023-02-12T20:50:51.581Z,49.17
2023-02-12T20:57:09.631Z,46.53
2023-02-12T21:09:26.422Z,44.75
2023-02-12T21:15:42.381Z,54.50
2023-02-12T21:21:55.600Z,43.30
2023-02-12T21:27:57.565Z,38.78
2023-02-12T21:34:01.077Z,34.92
2023-02-12T21:40:07.524Z,40.97
2023-02-12T21:46:10.519Z,36.13
2023-02-12T21:52:13.390Z,34.35
2023-02-12T21:58:15.729Z,34.10
2023-02-12T22:04:18.457Z,42.60
2023-02-12T22:10:20.581Z,40.45
2023-02-12T22:16:25.455Z,33.47
2023-02-12T22:22:27.410Z,34.30
2023-02-12T22:28:29.417Z,42.20
2023-02-12T22:34:31.351Z,39.55
2023-02-12T22:40:33.238Z,36.47
2023-02-12T22:46:36.428Z,44.38
2023-02-12T22:52:38.192Z,39.17
2023-02-12T22:58:40.667Z,36.13
2023-02-12T23:04:42.488Z,38.42
2023-02-12T23:10:44.264Z,36.97
2023-02-12T23:16:46.705Z,44.05
2023-02-12T23:22:48.614Z,37.72
2023-02-12T23:28:50.872Z,35.20
2023-02-12T23:34:52.624Z,35.03
2023-02-12T23:40:54.411Z,34.08
2023-02-12T23:46:56.205Z,33.33
2023-02-12T23:52:59.088Z,33.00
2023-02-12T23:59:00.880Z,32.25
